Time;durP1;ratioP1;P1;durP2;ratioP2;P2;SDS_P1;SDS_P2;PMS_P1;PMS_P2;Temp;Humidity;BMP_temperature;BMP_pressure;BME280_temperature;BME280_humidity;BME280_pressure;Samples;Min_cycle;Max_cycle;Signal;HPM_P1;HPM_P2
2022/01/20 00:01:59;;;;;;;5.43;3.42;;;4.00;99.90;;;;;;4924065;29;20094;-81
2022/01/20 00:04:40;;;;;;;7.03;4.05;;;3.90;99.90;;;;;;4924792;29;20033;-80
2022/01/20 00:27:54;;;;;;;5.43;3.25;;;3.90;99.90;;;;;;4925529;29;20047;-80
2022/01/20 00:33:46;;;;;;;5.55;3.08;;;4.10;99.90;;;;;;4848867;29;20062;-81
2022/01/20 00:39:04;;;;;;;4.95;2.83;;;4.00;99.90;;;;;;4944759;29;20099;-81
2022/01/20 00:41:31;;;;;;;5.57;3.20;;;4.00;99.90;;;;;;4929485;29;20028;-81
2022/01/20 00:43:59;;;;;;;5.00;2.58;;;4.00;99.90;;;;;;4929294;29;20028;-81
2022/01/20 00:46:30;;;;;;;4.65;2.95;;;4.00;99.90;;;;;;4930155;29;20095;-80
2022/01/20 00:49:01;;;;;;;4.55;2.80;;;4.00;99.90;;;;;;4927931;29;20052;-80
2022/01/20 00:51:33;;;;;;;4.72;2.58;;;3.90;99.90;;;;;;4928235;29;20032;-81
2022/01/20 00:54:01;;;;;;;;;;;3.90;99.90;;;;;;4929739;29;20024;-81
2022/01/20 00:56:27;;;;;;;4.35;2.60;;;3.90;99.90;;;;;;4943909;29;19903;-81
2022/01/20 00:58:53;;;;;;;5.43;2.83;;;3.80;99.90;;;;;;4928486;29;20107;-80
2022/01/20 01:01:18;;;;;;;5.10;2.70;;;3.80;99.90;;;;;;4916647;29;20059;-80
2022/01/20 01:03:56;;;;;;;4.82;3.10;;;3.80;99.90;;;;;;4908566;29;20031;-81
2022/01/20 01:08:59;;;;;;;4.93;2.78;;;3.70;99.90;;;;;;4909994;29;20033;-80
2022/01/20 01:11:26;;;;;;;5.07;3.00;;;3.70;99.90;;;;;;4908652;29;20043;-80
2022/01/20 01:13:59;;;;;;;4.85;2.63;;;3.70;99.90;;;;;;4908142;29;20196;-79
2022/01/20 01:16:37;;;;;;;4.80;2.40;;;3.70;99.90;;;;;;4909635;29;20048;-79
2022/01/20 01:22:02;;;;;;;4.38;2.40;;;3.70;99.90;;;;;;4923709;29;20043;-81
2022/01/20 01:24:52;;;;;;;4.55;2.50;;;3.70;99.90;;;;;;4892895;29;20104;-80
2022/01/20 01:27:21;;;;;;;3.97;1.90;;;3.70;99.90;;;;;;4908819;29;20029;-80
2022/01/20 01:33:08;;;;;;;4.22;2.00;;;3.80;99.90;;;;;;4908006;29;20287;-80
2022/01/20 01:35:17;;;;;;;3.63;2.13;;;3.70;99.90;;;;;;4905700;29;20335;-80
2022/01/20 01:40:26;;;;;;;3.50;1.98;;;3.60;99.90;;;;;;4907746;29;20216;-80
2022/01/20 01:43:01;;;;;;;3.80;2.28;;;3.60;99.90;;;;;;4905802;29;20033;-80
2022/01/20 01:45:30;;;;;;;3.30;1.98;;;3.60;99.90;;;;;;4908927;29;20100;-80
2022/01/20 01:47:57;;;;;;;3.92;2.15;;;3.70;99.90;;;;;;4891363;29;20040;-80
2022/01/20 01:50:25;;;;;;;3.38;1.80;;;3.70;99.90;;;;;;4930331;29;20111;-80
2022/01/20 01:52:56;;;;;;;3.75;2.05;;;3.60;99.90;;;;;;4925957;29;20075;-80
2022/01/20 01:55:23;;;;;;;3.45;1.60;;;3.60;99.90;;;;;;4926400;29;20192;-80
2022/01/20 01:57:50;;;;;;;4.15;1.98;;;3.60;99.90;;;;;;4925965;29;20063;-80
2022/01/20 02:00:40;;;;;;;4.30;1.92;;;3.60;99.90;;;;;;4926040;29;20044;-80
2022/01/20 02:03:06;;;;;;;;;;;3.60;99.90;;;;;;4910872;29;20099;-80
2022/01/20 02:06:07;;;;;;;4.20;2.05;;;3.60;99.90;;;;;;4942043;29;20249;-80
2022/01/20 02:08:43;;;;;;;3.22;1.65;;;3.60;99.90;;;;;;4925509;29;20385;-80
2022/01/20 02:19:44;;;;;;;3.22;1.60;;;3.70;99.90;;;;;;4926600;29;20050;-80
2022/01/20 02:22:36;;;;;;;3.20;1.77;;;3.60;99.90;;;;;;4913749;29;20059;-79
2022/01/20 02:25:29;;;;;;;3.92;1.63;;;3.60;99.90;;;;;;4939821;29;20067;-80
2022/01/20 02:27:56;;;;;;;3.58;1.90;;;3.60;99.90;;;;;;4909693;29;20059;-80
2022/01/20 02:30:24;;;;;;;;;;;3.60;99.90;;;;;;4926012;29;20075;-80
2022/01/20 02:32:55;;;;;;;3.17;1.67;;;3.60;99.90;;;;;;4940751;29;19906;-80
2022/01/20 02:35:24;;;;;;;5.68;2.17;;;3.60;99.90;;;;;;4926629;29;20115;-80
2022/01/20 02:37:58;;;;;;;3.65;1.70;;;3.60;99.90;;;;;;4925021;29;20043;-79
2022/01/20 02:45:46;;;;;;;3.10;1.50;;;3.60;99.90;;;;;;4926220;29;20028;-79
2022/01/20 02:48:12;;;;;;;;;;;3.60;99.90;;;;;;4941555;29;20448;-79
2022/01/20 02:50:39;;;;;;;3.55;1.50;;;3.60;99.90;;;;;;4909116;29;19907;-79
2022/01/20 02:53:05;;;;;;;2.42;1.27;;;3.60;99.90;;;;;;4940943;29;20076;-78
2022/01/20 02:55:33;;;;;;;2.83;1.30;;;3.70;99.90;;;;;;4940907;29;20142;-78
2022/01/20 02:57:59;;;;;;;3.72;1.70;;;3.70;99.90;;;;;;4923732;29;20028;-78
2022/01/20 03:00:25;;;;;;;3.05;1.42;;;3.70;99.90;;;;;;4940852;29;20229;-81
2022/01/20 03:02:50;;;;;;;4.45;1.38;;;3.70;99.90;;;;;;4925883;29;20055;-79
2022/01/20 03:05:16;;;;;;;2.10;0.90;;;3.70;99.90;;;;;;4924853;29;20028;-79
2022/01/20 03:07:46;;;;;;;2.05;1.05;;;3.80;99.90;;;;;;4939422;29;20020;-79
2022/01/20 03:10:12;;;;;;;3.03;1.13;;;3.80;99.90;;;;;;4924691;29;20200;-79
2022/01/20 03:12:39;;;;;;;1.73;0.75;;;3.80;99.90;;;;;;4925511;29;20103;-80
2022/01/20 03:15:05;;;;;;;1.92;0.90;;;3.80;99.90;;;;;;4926306;29;20026;-80
2022/01/20 03:17:32;;;;;;;3.35;1.25;;;3.80;99.90;;;;;;4940909;29;20032;-79
2022/01/20 03:19:59;;;;;;;2.65;1.20;;;3.80;99.90;;;;;;4925628;29;20024;-79
2022/01/20 03:22:28;;;;;;;3.45;1.20;;;3.90;99.90;;;;;;4940627;29;20364;-80
2022/01/20 03:24:55;;;;;;;3.03;1.65;;;3.90;99.90;;;;;;4924416;29;20044;-80
2022/01/20 03:27:23;;;;;;;2.42;0.82;;;3.90;99.90;;;;;;4940447;29;20032;-79
2022/01/20 03:29:49;;;;;;;2.42;1.00;;;3.90;99.90;;;;;;4939758;29;20052;-79
2022/01/20 03:32:15;;;;;;;2.65;1.17;;;3.90;99.90;;;;;;4940421;29;20095;-79
2022/01/20 03:34:43;;;;;;;3.37;1.00;;;3.90;99.90;;;;;;4908108;29;20222;-80
2022/01/20 03:37:14;;;;;;;2.70;1.30;;;3.90;99.90;;;;;;4924640;29;20032;-79
2022/01/20 03:39:56;;;;;;;2.20;1.00;;;4.00;99.90;;;;;;4941337;29;20107;-80
2022/01/20 03:42:22;;;;;;;2.03;1.13;;;4.00;99.90;;;;;;4941580;29;20032;-80
2022/01/20 03:44:47;;;;;;;2.60;1.10;;;4.00;99.90;;;;;;4940058;29;20119;-80
2022/01/20 03:47:14;;;;;;;2.38;1.20;;;4.00;99.90;;;;;;4925501;29;20367;-80
2022/01/20 03:49:53;;;;;;;2.20;1.20;;;4.00;99.90;;;;;;4940390;29;20084;-79
2022/01/20 03:52:19;;;;;;;2.42;1.10;;;4.00;99.90;;;;;;4940108;29;20032;-80
2022/01/20 03:54:45;;;;;;;3.13;1.63;;;4.00;99.90;;;;;;4924060;29;20095;-79
2022/01/20 03:57:17;;;;;;;2.53;1.50;;;4.00;99.90;;;;;;4925873;29;20036;-79
2022/01/20 04:00:04;;;;;;;2.90;1.40;;;4.10;99.90;;;;;;4924811;29;20115;-79
2022/01/20 04:02:54;;;;;;;3.53;1.50;;;4.00;99.90;;;;;;4940069;29;20266;-80
2022/01/20 04:05:39;;;;;;;3.40;1.40;;;4.00;99.90;;;;;;4925824;29;20103;-80
2022/01/20 04:08:37;;;;;;;2.75;1.58;;;4.00;99.90;;;;;;4924984;29;20203;-79
2022/01/20 04:11:05;;;;;;;3.28;1.60;;;4.10;99.90;;;;;;4911633;29;20218;-80
2022/01/20 04:13:32;;;;;;;4.53;1.70;;;4.00;99.90;;;;;;4912244;29;20162;-80
2022/01/20 04:16:14;;;;;;;3.38;1.77;;;4.00;99.90;;;;;;4942729;29;20031;-79
2022/01/20 04:18:53;;;;;;;2.65;1.40;;;3.90;99.90;;;;;;4943936;29;20036;-80
2022/01/20 04:21:28;;;;;;;3.05;1.65;;;3.80;99.90;;;;;;4927634;29;20051;-80
2022/01/20 04:23:57;;;;;;;2.85;1.63;;;3.80;99.90;;;;;;4927713;29;20032;-80
2022/01/20 04:26:23;;;;;;;2.35;1.40;;;3.80;99.90;;;;;;4927810;29;20039;-81
2022/01/20 04:28:56;;;;;;;2.70;1.42;;;3.80;99.90;;;;;;4926814;29;20056;-80
2022/01/20 04:31:25;;;;;;;3.08;1.70;;;3.90;99.90;;;;;;4927532;29;20092;-80
2022/01/20 04:33:52;;;;;;;2.30;1.35;;;4.00;99.90;;;;;;4911861;29;20028;-81
2022/01/20 04:36:18;;;;;;;2.80;1.42;;;4.10;99.90;;;;;;4928937;29;20102;-81
2022/01/20 04:38:45;;;;;;;2.17;1.40;;;4.10;99.90;;;;;;4911343;29;20095;-81
2022/01/20 04:41:11;;;;;;;3.08;1.38;;;4.10;99.90;;;;;;4943370;29;20044;-81
2022/01/20 04:43:38;;;;;;;4.35;1.77;;;4.10;99.90;;;;;;4959508;29;20227;-80
2022/01/20 04:46:15;;;;;;;2.53;1.45;;;4.00;99.90;;;;;;4942769;29;20274;-81
2022/01/20 04:48:59;;;;;;;2.50;1.42;;;4.10;99.90;;;;;;4928742;29;20027;-81
2022/01/20 04:57:14;;;;;;;3.45;1.80;;;4.10;99.90;;;;;;4926778;29;20024;-81
2022/01/20 04:59:41;;;;;;;3.00;1.63;;;4.00;99.90;;;;;;4911394;29;20068;-81
2022/01/20 05:02:06;;;;;;;3.88;2.08;;;4.00;99.90;;;;;;4910698;29;20356;-81
2022/01/20 05:04:46;;;;;;;4.43;2.17;;;4.00;99.90;;;;;;4926530;29;20608;-81
2022/01/20 05:07:26;;;;;;;3.72;2.03;;;3.80;99.90;;;;;;4943236;29;20068;-80
2022/01/20 05:09:54;;;;;;;4.10;2.33;;;3.80;99.90;;;;;;4942554;29;20032;-81
2022/01/20 05:12:27;;;;;;;4.60;2.00;;;3.80;99.90;;;;;;4942903;29;20032;-80
2022/01/20 05:14:54;;;;;;;3.65;1.95;;;3.80;99.90;;;;;;4942653;29;20051;-81
2022/01/20 05:17:20;;;;;;;4.38;1.70;;;3.70;99.90;;;;;;4928254;29;20016;-80
2022/01/20 05:19:50;;;;;;;4.30;1.90;;;3.70;99.90;;;;;;4926384;29;20063;-81
2022/01/20 05:22:16;;;;;;;4.13;1.77;;;3.70;99.90;;;;;;4925865;29;20339;-81
2022/01/20 05:24:50;;;;;;;3.22;1.98;;;3.70;99.90;;;;;;4942541;29;20032;-81
2022/01/20 05:27:25;;;;;;;4.72;2.00;;;3.70;99.90;;;;;;4911200;29;20036;-81
2022/01/20 05:29:51;;;;;;;5.05;1.90;;;3.70;99.90;;;;;;4925932;29;20052;-80
2022/01/20 05:32:19;;;;;;;4.53;2.03;;;3.60;99.90;;;;;;4926584;29;20271;-79
2022/01/20 05:34:45;;;;;;;3.67;1.92;;;3.70;99.90;;;;;;4927613;29;20032;-78
2022/01/20 05:37:14;;;;;;;3.28;2.10;;;3.70;99.90;;;;;;4941964;29;20036;-78
2022/01/20 05:39:42;;;;;;;5.03;2.15;;;3.70;99.90;;;;;;4926170;29;20020;-78
2022/01/20 05:42:09;;;;;;;4.25;2.38;;;3.70;99.90;;;;;;4941515;29;20044;-79
2022/01/20 05:45:06;;;;;;;4.40;2.20;;;3.70;99.90;;;;;;4916684;29;20322;-79
2022/01/20 05:47:34;;;;;;;3.60;1.92;;;3.70;99.90;;;;;;4910613;29;20032;-79
2022/01/20 05:50:14;;;;;;;4.50;2.28;;;3.60;99.90;;;;;;4927036;29;20043;-77
2022/01/20 05:52:41;;;;;;;3.95;2.00;;;3.60;99.90;;;;;;4895198;29;20317;-77
2022/01/20 05:55:13;;;;;;;3.85;1.98;;;3.70;99.90;;;;;;4941610;29;20429;-78
2022/01/20 05:57:40;;;;;;;5.65;2.20;;;3.60;99.90;;;;;;4926385;29;20103;-78
2022/01/20 06:04:43;;;;;;;3.45;2.05;;;3.60;99.90;;;;;;4926406;29;20039;-80
2022/01/20 06:07:09;;;;;;;3.80;1.90;;;3.60;99.90;;;;;;4926668;29;20054;-79
2022/01/20 06:09:35;;;;;;;5.68;2.22;;;3.50;99.90;;;;;;4910054;29;20045;-77
2022/01/20 06:12:13;;;;;;;4.32;2.08;;;3.50;99.90;;;;;;4926634;29;20051;-79
2022/01/20 06:14:47;;;;;;;4.25;1.92;;;3.50;99.90;;;;;;4910006;29;20314;-79
2022/01/20 06:17:13;;;;;;;3.55;1.90;;;3.40;99.90;;;;;;4926136;29;20070;-78
2022/01/20 06:19:42;;;;;;;4.25;2.15;;;3.40;99.90;;;;;;4926092;29;20056;-79
2022/01/20 06:22:13;;;;;;;4.03;2.55;;;3.50;99.90;;;;;;4925691;29;20315;-80
2022/01/20 06:24:40;;;;;;;6.47;2.40;;;3.40;99.90;;;;;;4910214;29;20059;-78
2022/01/20 06:27:06;;;;;;;4.20;2.28;;;3.40;99.90;;;;;;4909277;29;20099;-79
2022/01/20 06:29:32;;;;;;;4.03;2.30;;;3.40;99.90;;;;;;4909591;29;20047;-79
2022/01/20 06:31:57;;;;;;;7.00;2.50;;;3.50;99.90;;;;;;4924564;29;20047;-80
2022/01/20 06:34:23;;;;;;;4.82;2.53;;;3.50;99.90;;;;;;4910233;29;20056;-79
2022/01/20 06:36:54;;;;;;;5.20;2.63;;;3.50;99.90;;;;;;4925148;29;20057;-79
2022/01/20 06:39:20;;;;;;;4.38;2.20;;;3.60;99.90;;;;;;4925454;29;20084;-79
2022/01/20 06:41:46;;;;;;;6.30;2.47;;;3.70;99.90;;;;;;4909593;29;20107;-79
2022/01/20 06:44:12;;;;;;;4.85;2.30;;;3.80;99.90;;;;;;4909076;29;20028;-79
2022/01/20 06:46:38;;;;;;;4.25;2.03;;;3.80;99.90;;;;;;4924766;29;20059;-80
2022/01/20 06:49:21;;;;;;;4.78;2.13;;;3.80;99.90;;;;;;4909854;29;20035;-79
2022/01/20 06:52:06;;;;;;;4.40;2.25;;;3.70;99.90;;;;;;4922504;29;20063;-80
2022/01/20 06:54:34;;;;;;;6.82;2.67;;;3.70;99.90;;;;;;4940847;29;20035;-77
2022/01/20 06:57:01;;;;;;;;;;;3.70;99.90;;;;;;4925037;29;20026;-78
2022/01/20 06:59:28;;;;;;;5.00;2.30;;;3.80;99.90;;;;;;4941001;29;19981;-78
2022/01/20 07:01:54;;;;;;;5.32;2.20;;;3.70;99.90;;;;;;4935265;29;20091;-78
2022/01/20 07:04:27;;;;;;;5.45;2.40;;;3.60;99.90;;;;;;4909359;29;20123;-80
2022/01/20 07:06:53;;;;;;;5.35;1.98;;;3.50;99.90;;;;;;4937950;29;20024;-79
2022/01/20 07:09:39;;;;;;;5.70;2.50;;;3.40;99.90;;;;;;4925749;29;20062;-79
2022/01/20 07:12:31;;;;;;;7.60;3.10;;;3.40;99.90;;;;;;4896833;29;20033;-77
2022/01/20 07:14:57;;;;;;;4.38;2.50;;;3.30;99.90;;;;;;4911743;29;20104;-78
2022/01/20 07:17:25;;;;;;;5.57;3.03;;;3.20;99.90;;;;;;4908931;29;20115;-77
2022/01/20 07:19:51;;;;;;;6.65;2.60;;;3.10;99.90;;;;;;4924944;29;20032;-78
2022/01/20 07:22:22;;;;;;;4.40;2.77;;;3.10;99.90;;;;;;4908740;29;20331;-79
2022/01/20 07:24:50;;;;;;;5.78;2.92;;;3.10;99.90;;;;;;4908921;29;20059;-78
2022/01/20 07:27:44;;;;;;;4.63;2.42;;;3.20;99.90;;;;;;4925181;29;20032;-78
2022/01/20 07:30:10;;;;;;;4.43;2.20;;;3.20;99.90;;;;;;4907607;29;20052;-78
2022/01/20 07:32:36;;;;;;;4.47;2.22;;;3.10;99.90;;;;;;4909835;29;20111;-78
2022/01/20 07:35:02;;;;;;;4.03;2.30;;;3.00;99.90;;;;;;4946550;29;20028;-77
2022/01/20 07:37:28;;;;;;;4.38;1.90;;;3.00;99.90;;;;;;4933667;29;20207;-77
2022/01/20 07:39:57;;;;;;;4.85;2.08;;;3.00;99.90;;;;;;4927400;29;20027;-79
2022/01/20 07:42:23;;;;;;;4.35;2.38;;;3.00;99.90;;;;;;4929408;29;20175;-79
2022/01/20 07:45:02;;;;;;;5.40;2.17;;;2.90;99.90;;;;;;4906865;29;20055;-78
2022/01/20 07:47:39;;;;;;;5.17;2.23;;;3.00;99.90;;;;;;4923962;29;20067;-78
2022/01/20 07:50:09;;;;;;;6.65;2.63;;;3.00;99.90;;;;;;4924524;29;20163;-79
2022/01/20 07:52:50;;;;;;;6.75;2.67;;;3.00;99.90;;;;;;4908373;29;20039;-79
2022/01/20 07:55:16;;;;;;;4.10;1.95;;;3.00;99.90;;;;;;4939561;29;20032;-79
2022/01/20 07:57:42;;;;;;;4.88;2.42;;;3.00;99.90;;;;;;4939906;29;20318;-79
2022/01/20 08:00:09;;;;;;;6.78;2.53;;;3.10;99.90;;;;;;4923078;29;20062;-79
2022/01/20 08:02:45;;;;;;;5.15;2.10;;;3.20;99.90;;;;;;4924967;29;20032;-79
2022/01/20 08:05:21;;;;;;;6.63;2.07;;;3.20;99.90;;;;;;4940136;29;20111;-79
2022/01/20 08:07:48;;;;;;;7.70;1.90;;;3.30;99.90;;;;;;4925097;29;20032;-80
2022/01/20 08:10:14;;;;;;;7.38;2.83;;;3.40;99.90;;;;;;4907416;29;20083;-78
2022/01/20 08:12:40;;;;;;;7.60;2.28;;;3.50;99.90;;;;;;4924955;29;20040;-78
2022/01/20 08:15:17;;;;;;;7.15;1.85;;;3.50;99.90;;;;;;4939037;29;20040;-78
2022/01/20 08:17:56;;;;;;;5.93;1.85;;;3.60;99.90;;;;;;4922053;29;20293;-78
2022/01/20 08:30:17;;;;;;;8.65;2.22;;;4.20;99.90;;;;;;5448801;23;20130;-78
2022/01/20 08:32:44;;;;;;;7.05;2.10;;;4.20;99.90;;;;;;4962007;29;20221;-79
2022/01/20 08:35:43;;;;;;;8.05;2.45;;;4.20;99.90;;;;;;4952975;29;20130;-78
2022/01/20 08:38:11;;;;;;;6.20;2.40;;;4.20;99.90;;;;;;4946063;29;20090;-78
2022/01/20 08:40:39;;;;;;;9.35;2.40;;;4.20;99.90;;;;;;4925612;29;20059;-79
2022/01/20 08:43:06;;;;;;;10.30;2.60;;;4.20;99.90;;;;;;4926794;29;20055;-79
2022/01/20 08:45:34;;;;;;;12.18;2.63;;;4.20;99.90;;;;;;4926706;29;20095;-79
2022/01/20 08:48:01;;;;;;;8.48;2.72;;;4.30;99.90;;;;;;4910964;29;20249;-79
2022/01/20 08:50:53;;;;;;;7.65;2.53;;;4.20;99.90;;;;;;4954969;29;20348;-78
2022/01/20 08:53:19;;;;;;;10.50;2.63;;;4.30;99.90;;;;;;4945113;29;20039;-79
2022/01/20 08:55:45;;;;;;;6.80;2.25;;;4.40;99.90;;;;;;4945854;29;20321;-78
2022/01/20 08:58:14;;;;;;;6.20;2.40;;;4.40;99.90;;;;;;4966059;29;20042;-79
2022/01/20 09:00:41;;;;;;;5.82;2.70;;;4.50;99.90;;;;;;4948643;29;20047;-78
2022/01/20 09:03:09;;;;;;;;;;;4.60;99.90;;;;;;4949512;29;20031;-79
2022/01/20 09:05:36;;;;;;;8.25;2.40;;;4.50;99.90;;;;;;4949361;29;19907;-78
2022/01/20 09:08:19;;;;;;;8.30;2.35;;;4.50;99.90;;;;;;4948618;29;20242;-78
2022/01/20 09:10:55;;;;;;;8.13;2.60;;;4.60;99.90;;;;;;4914822;29;20090;-77
2022/01/20 09:16:10;;;;;;;11.32;2.80;;;4.70;99.90;;;;;;4910298;29;20044;-78
2022/01/20 09:18:46;;;;;;;;;;;4.80;99.90;;;;;;4928695;29;20024;-78
2022/01/20 09:21:12;;;;;;;8.20;2.40;;;4.80;99.90;;;;;;4927291;29;19986;-78
2022/01/20 09:23:39;;;;;;;5.88;2.50;;;4.80;99.90;;;;;;4926564;29;20024;-78
2022/01/20 09:26:06;;;;;;;5.40;2.33;;;5.00;99.90;;;;;;4910286;29;20032;-78
2022/01/20 09:28:36;;;;;;;9.23;2.15;;;5.10;99.90;;;;;;4926484;29;20024;-78
2022/01/20 09:31:02;;;;;;;7.40;2.88;;;5.00;99.90;;;;;;4921979;29;20058;-78
2022/01/20 09:33:29;;;;;;;9.70;2.60;;;5.10;99.90;;;;;;4926774;29;20028;-78
2022/01/20 09:35:58;;;;;;;10.73;2.60;;;5.20;99.90;;;;;;4946867;29;20042;-79
2022/01/20 09:38:27;;;;;;;9.00;2.10;;;5.20;99.90;;;;;;4945048;29;20035;-78
2022/01/20 09:40:54;;;;;;;10.38;2.38;;;5.30;99.90;;;;;;4945151;29;20243;-78
2022/01/20 09:43:20;;;;;;;6.45;2.40;;;5.30;99.90;;;;;;4944639;29;20039;-78
2022/01/20 09:45:50;;;;;;;9.13;2.38;;;5.30;99.90;;;;;;4944648;29;20035;-78
2022/01/20 09:49:04;;;;;;;9.52;2.90;;;5.30;99.90;;;;;;4944919;29;20083;-77
2022/01/20 09:51:41;;;;;;;9.45;2.00;;;5.20;99.90;;;;;;4929620;29;20032;-78
2022/01/20 09:54:13;;;;;;;9.07;2.35;;;5.20;99.90;;;;;;4929054;29;20039;-78
2022/01/20 09:56:58;;;;;;;8.77;2.42;;;5.30;99.90;;;;;;4946353;29;20058;-77
2022/01/20 09:59:28;;;;;;;7.95;2.20;;;5.30;99.90;;;;;;4944324;29;20063;-77
2022/01/20 10:01:58;;;;;;;9.07;2.35;;;5.40;99.90;;;;;;4928621;29;20051;-78
2022/01/20 10:04:35;;;;;;;6.43;2.33;;;5.40;99.90;;;;;;4932202;29;20028;-78
2022/01/20 10:07:34;;;;;;;7.05;2.25;;;5.40;99.90;;;;;;4910614;29;20258;-77
2022/01/20 10:10:14;;;;;;;9.25;2.30;;;5.50;99.90;;;;;;4925162;29;20326;-78
2022/01/20 10:13:07;;;;;;;8.82;2.00;;;5.50;99.90;;;;;;4923700;29;20044;-79
2022/01/20 10:16:15;;;;;;;8.63;2.42;;;5.30;99.90;;;;;;4926150;29;20070;-79
2022/01/20 10:18:57;;;;;;;15.07;2.55;;;5.20;99.90;;;;;;4911737;29;20032;-79
2022/01/20 10:22:22;;;;;;;12.38;2.28;;;5.40;99.90;;;;;;4910771;29;20044;-79
2022/01/20 10:25:18;;;;;;;7.38;2.08;;;5.30;99.90;;;;;;4925003;29;20028;-79
2022/01/20 10:28:00;;;;;;;9.05;2.58;;;5.40;99.90;;;;;;4927148;29;20055;-79
2022/01/20 10:30:28;;;;;;;10.60;2.28;;;5.50;99.90;;;;;;4954192;28;20043;-79
2022/01/20 10:32:58;;;;;;;9.30;2.95;;;5.40;99.90;;;;;;4947620;29;20027;-79
2022/01/20 10:35:31;;;;;;;8.48;2.33;;;5.40;99.90;;;;;;4962698;28;20082;-78
2022/01/20 10:38:13;;;;;;;10.40;2.40;;;5.50;99.90;;;;;;4947371;29;20031;-79
2022/01/20 10:40:59;;;;;;;9.93;2.88;;;5.40;99.90;;;;;;4963284;28;20069;-78
2022/01/20 10:43:33;;;;;;;10.43;2.22;;;5.50;99.90;;;;;;4945610;29;20034;-78
2022/01/20 10:46:10;;;;;;;14.60;2.33;;;5.50;99.90;;;;;;4946458;29;20031;-78
2022/01/20 10:48:37;;;;;;;7.18;2.10;;;5.50;99.90;;;;;;4963464;29;20082;-78
2022/01/20 10:51:18;;;;;;;8.05;2.53;;;5.60;99.90;;;;;;4963709;28;20023;-79
2022/01/20 10:54:01;;;;;;;5.90;2.42;;;5.70;99.90;;;;;;4947624;29;20038;-79
2022/01/20 10:56:30;;;;;;;8.20;2.60;;;5.80;99.90;;;;;;4963273;28;20042;-79
2022/01/20 10:59:06;;;;;;;5.00;2.03;;;5.90;99.90;;;;;;4963008;28;20035;-79
2022/01/20 11:01:33;;;;;;;9.57;2.95;;;6.00;99.90;;;;;;4962438;28;20118;-79
2022/01/20 11:04:00;;;;;;;8.68;2.20;;;6.30;99.90;;;;;;4963195;28;20034;-80
2022/01/20 11:06:29;;;;;;;9.20;2.25;;;6.40;99.90;;;;;;4946551;29;20331;-78
2022/01/20 11:09:07;;;;;;;6.43;2.30;;;6.40;99.90;;;;;;4962692;28;20326;-77
2022/01/20 11:12:05;;;;;;;6.45;2.30;;;6.40;99.90;;;;;;4962683;29;20049;-78
2022/01/20 11:14:51;;;;;;;7.60;2.40;;;6.10;99.90;;;;;;4963125;29;20329;-78
2022/01/20 11:17:28;;;;;;;5.70;2.05;;;6.00;99.90;;;;;;4961843;28;20070;-77
2022/01/20 11:20:04;;;;;;;6.15;2.13;;;5.80;99.90;;;;;;4962482;28;20076;-78
2022/01/20 11:22:30;;;;;;;9.82;2.42;;;5.80;99.90;;;;;;4946615;29;20317;-78
2022/01/20 11:25:13;;;;;;;6.35;2.33;;;5.70;99.90;;;;;;4962205;29;20078;-80
2022/01/20 11:28:08;;;;;;;9.18;2.67;;;5.70;99.90;;;;;;4962762;29;20027;-77
2022/01/20 11:31:15;;;;;;;8.57;3.25;;;5.60;99.90;;;;;;4947769;28;20039;-80
2022/01/20 11:33:55;;;;;;;8.02;2.95;;;5.70;99.90;;;;;;4958990;29;20028;-77
2022/01/20 11:36:28;;;;;;;10.07;3.05;;;5.80;99.90;;;;;;4936976;29;20035;-77
2022/01/20 11:39:01;;;;;;;8.93;2.47;;;5.90;99.90;;;;;;4963328;29;20039;-78
2022/01/20 11:41:49;;;;;;;8.38;2.53;;;5.90;99.90;;;;;;4964379;29;20333;-78
2022/01/20 11:44:20;;;;;;;10.23;2.50;;;5.80;99.90;;;;;;4963298;29;20369;-78
2022/01/20 11:46:49;;;;;;;7.82;3.05;;;5.70;99.90;;;;;;4961823;28;20046;-78
2022/01/20 11:49:18;;;;;;;11.13;2.88;;;5.70;99.90;;;;;;4962411;29;20031;-77
2022/01/20 11:52:08;;;;;;;10.32;2.38;;;6.10;99.90;;;;;;4963512;29;20269;-78
2022/01/20 11:54:40;;;;;;;9.45;2.55;;;6.60;99.90;;;;;;4963639;29;20302;-77
2022/01/20 11:57:11;;;;;;;6.28;2.30;;;6.60;99.90;;;;;;4943013;29;20055;-78
2022/01/20 11:59:45;;;;;;;7.97;2.10;;;6.40;99.90;;;;;;4943510;29;20043;-78
2022/01/20 12:06:01;;;;;;;6.53;2.22;;;7.30;99.90;;;;;;4944485;29;20095;-78
2022/01/20 12:16:21;;;;;;;6.63;2.05;;;7.10;99.90;;;;;;4943047;29;19914;-77
2022/01/20 12:22:18;;;;;;;6.07;1.67;;;6.10;99.90;;;;;;4944969;29;20170;-78
2022/01/20 12:24:57;;;;;;;8.75;2.55;;;6.00;99.90;;;;;;4945425;29;20059;-78
2022/01/20 12:27:25;;;;;;;2.85;0.60;;;5.90;99.90;;;;;;4964135;29;20050;-78
2022/01/20 12:29:51;;;;;;;5.93;1.27;;;5.20;99.90;;;;;;4963299;28;20246;-78
2022/01/20 12:32:20;;;;;;;2.28;0.63;;;4.30;99.90;;;;;;4966296;28;20105;-78
2022/01/20 12:35:02;;;;;;;3.85;0.90;;;3.90;99.90;;;;;;4949452;29;20023;-78
2022/01/20 12:37:39;;;;;;;6.70;1.20;;;3.50;99.90;;;;;;4966181;29;20381;-78
2022/01/20 12:40:16;;;;;;;3.80;0.98;;;3.30;99.90;;;;;;4965585;29;20254;-79
2022/01/20 12:42:42;;;;;;;5.40;1.10;;;3.10;99.90;;;;;;4965021;29;20110;-78
2022/01/20 12:47:52;;;;;;;6.28;1.48;;;2.80;99.90;;;;;;4967774;29;20330;-79
2022/01/20 12:50:21;;;;;;;8.73;1.67;;;2.80;99.90;;;;;;4968326;29;20026;-78
2022/01/20 12:52:49;;;;;;;4.40;1.30;;;2.70;99.90;;;;;;4967188;29;20027;-79
2022/01/20 12:55:15;;;;;;;7.43;1.50;;;2.70;99.90;;;;;;4965269;29;20031;-78
2022/01/20 12:57:42;;;;;;;6.82;1.45;;;2.70;99.90;;;;;;4967023;29;20195;-78
2022/01/20 13:00:09;;;;;;;7.82;1.40;;;2.70;99.90;;;;;;4966707;28;20262;-79
2022/01/20 13:02:34;;;;;;;6.57;1.70;;;2.70;99.90;;;;;;4966738;29;20055;-79
2022/01/20 13:05:07;;;;;;;7.28;1.98;;;2.80;99.90;;;;;;4966385;29;20171;-79
2022/01/20 13:07:36;;;;;;;7.07;1.42;;;2.80;99.90;;;;;;4964648;29;20198;-79
2022/01/20 13:10:31;;;;;;;5.22;1.70;;;2.90;99.90;;;;;;4966545;28;20035;-79
2022/01/20 13:12:57;;;;;;;7.85;1.98;;;2.90;99.90;;;;;;4950243;29;20027;-79
2022/01/20 13:15:24;;;;;;;7.32;1.60;;;2.90;99.90;;;;;;4965550;29;20372;-78
2022/01/20 13:18:13;;;;;;;6.57;2.22;;;3.00;99.90;;;;;;4949380;29;20352;-80
2022/01/20 13:20:42;;;;;;;6.35;1.90;;;2.90;99.90;;;;;;4950569;29;20046;-79
2022/01/20 13:23:54;;;;;;;8.57;2.03;;;3.00;99.90;;;;;;4967826;29;20030;-78
2022/01/20 13:26:06;;;;;;;6.93;1.73;;;3.00;99.90;;;;;;4966553;29;20210;-80
2022/01/20 13:28:33;;;;;;;7.55;1.77;;;2.90;99.90;;;;;;4968176;29;20109;-79
2022/01/20 13:31:13;;;;;;;10.13;2.92;;;2.90;99.90;;;;;;4965606;29;20035;-80
2022/01/20 13:33:39;;;;;;;8.85;1.92;;;2.90;99.90;;;;;;4965304;28;20081;-80
2022/01/20 13:36:05;;;;;;;8.52;1.90;;;2.90;99.90;;;;;;4965147;29;20031;-82
2022/01/20 13:38:34;;;;;;;10.55;1.88;;;2.90;99.90;;;;;;4964562;29;20132;-78
2022/01/20 13:41:13;;;;;;;6.70;1.98;;;2.90;99.90;;;;;;4964771;28;20043;-80
2022/01/20 13:47:20;;;;;;;7.32;2.10;;;2.90;99.90;;;;;;4963953;28;20039;-81
2022/01/20 13:49:48;;;;;;;8.45;2.30;;;3.00;99.90;;;;;;4934859;29;20035;-81
2022/01/20 13:52:18;;;;;;;8.07;2.97;;;3.00;99.90;;;;;;4958661;29;20039;-81
2022/01/20 13:54:53;;;;;;;8.77;2.30;;;2.90;99.90;;;;;;4965844;29;20062;-80
2022/01/20 13:57:20;;;;;;;7.03;1.55;;;2.90;99.90;;;;;;4965182;29;20129;-80
2022/01/20 13:59:57;;;;;;;8.05;2.38;;;2.90;99.90;;;;;;4964972;29;20082;-80
2022/01/20 14:02:25;;;;;;;7.47;2.20;;;2.90;99.90;;;;;;4968005;28;20095;-80
2022/01/20 14:08:47;;;;;;;5.55;2.00;;;3.00;99.90;;;;;;4965692;28;20030;-81
2022/01/20 14:11:12;;;;;;;10.90;2.95;;;3.00;99.90;;;;;;4965440;29;20023;-81
2022/01/20 14:13:38;;;;;;;8.45;1.92;;;3.10;99.90;;;;;;4965837;29;20302;-81
2022/01/20 14:16:04;;;;;;;6.93;2.22;;;3.30;99.90;;;;;;4964810;29;20054;-78
2022/01/20 14:18:40;;;;;;;8.32;2.10;;;3.20;99.90;;;;;;4964894;29;20027;-79
2022/01/20 14:21:08;;;;;;;5.65;2.35;;;3.20;99.90;;;;;;4949546;29;20078;-81
2022/01/20 14:23:36;;;;;;;7.65;1.92;;;3.00;99.90;;;;;;4939361;29;20301;-81
2022/01/20 14:26:05;;;;;;;6.70;2.08;;;3.00;99.90;;;;;;4956080;29;20418;-80
2022/01/20 14:28:31;;;;;;;9.48;2.75;;;2.90;99.90;;;;;;4921110;29;20078;-79
2022/01/20 14:30:57;;;;;;;7.88;2.40;;;3.00;99.90;;;;;;4951366;28;20038;-80
2022/01/20 14:33:24;;;;;;;8.07;2.28;;;2.90;99.90;;;;;;4963726;28;20103;-78
2022/01/20 14:35:50;;;;;;;10.15;2.80;;;2.80;99.90;;;;;;4970247;28;20023;-78
2022/01/20 14:38:17;;;;;;;7.57;2.13;;;2.80;99.90;;;;;;4954512;29;20020;-80
2022/01/20 14:40:42;;;;;;;8.68;2.70;;;2.80;99.90;;;;;;4952704;29;20035;-78
2022/01/20 14:43:08;;;;;;;11.35;2.80;;;2.70;99.90;;;;;;4956671;29;20129;-79
2022/01/20 14:45:34;;;;;;;11.65;3.45;;;2.70;99.90;;;;;;4953849;28;20051;-79
2022/01/20 14:48:00;;;;;;;9.70;2.70;;;2.70;99.90;;;;;;4953570;28;20099;-79
2022/01/20 14:53:59;;;;;;;12.70;2.63;;;2.70;99.90;;;;;;4964407;28;20051;-79
2022/01/20 14:56:25;;;;;;;5.78;3.17;;;2.80;99.90;;;;;;4963623;29;20094;-79
2022/01/20 14:58:51;;;;;;;9.00;2.72;;;2.90;99.90;;;;;;4944057;29;20027;-79
2022/01/20 15:01:17;;;;;;;9.15;2.72;;;3.00;99.90;;;;;;4943158;29;20442;-80
2022/01/20 15:03:43;;;;;;;7.43;3.00;;;3.00;99.90;;;;;;4949104;29;20086;-80
2022/01/20 15:06:09;;;;;;;8.45;2.60;;;3.00;99.90;;;;;;4980092;28;20031;-81
2022/01/20 15:08:35;;;;;;;9.45;2.47;;;2.90;99.90;;;;;;4947405;29;20036;-79